Time;durP1;ratioP1;P1;durP2;ratioP2;P2;SDS_P1;SDS_P2;PMS_P1;PMS_P2;Temp;Humidity;BMP_temperature;BMP_pressure;BME280_temperature;BME280_humidity;BME280_pressure;Samples;Min_cycle;Max_cycle;Signal;HPM_P1;HPM_P2
2021/04/07 00:00:33;;;;;;;0.33;0.33;;;;;;;2.28;87.66;99307.04;1768516;79;21695;-42
2021/04/07 00:03:01;;;;;;;0.37;0.37;;;;;;;2.24;87.83;99311.83;1795040;79;21119;-43
2021/04/07 00:05:32;;;;;;;0.00;0.00;;;;;;;2.18;87.96;99302.88;1794016;79;21139;-42
2021/04/07 00:08:00;;;;;;;0.00;0.00;;;;;;;2.13;87.99;99301.48;1767089;79;21136;-42
2021/04/07 00:10:39;;;;;;;0.95;0.95;;;;;;;2.06;88.06;99302.20;1794381;79;21138;-43
2021/04/07 00:13:16;;;;;;;0.20;0.20;;;;;;;2.05;88.34;99298.70;1846388;76;29677;-40
2021/04/07 00:15:44;;;;;;;0.10;0.10;;;;;;;1.98;88.52;99302.11;1722125;83;21122;-40
2021/04/07 00:18:13;;;;;;;0.15;0.15;;;;;;;1.96;88.71;99302.89;1739786;81;21222;-40
2021/04/07 00:20:41;;;;;;;0.10;0.10;;;;;;;1.95;88.89;99303.94;1767150;80;21583;-41
2021/04/07 00:23:10;;;;;;;0.10;0.10;;;;;;;1.96;89.12;99299.39;1785273;80;21170;-41
2021/04/07 00:25:38;;;;;;;0.10;0.10;;;;;;;1.96;89.29;99302.08;1782425;80;21142;-40
2021/04/07 00:28:07;;;;;;;0.10;0.10;;;;;;;1.97;89.45;99297.77;1717391;83;21569;-40
2021/04/07 00:30:36;;;;;;;0.60;0.45;;;;;;;1.99;89.58;99305.08;1722000;81;21413;-41
2021/04/07 00:33:05;;;;;;;0.10;0.10;;;;;;;1.99;89.64;99307.77;1724400;83;21207;-41
2021/04/07 00:35:33;;;;;;;0.00;0.00;;;;;;;1.99;89.69;99310.47;1733103;81;21119;-42
2021/04/07 00:38:00;;;;;;;0.33;0.33;;;;;;;2.00;89.77;99304.00;1732848;82;21485;-40
2021/04/07 00:40:30;;;;;;;0.30;0.30;;;;;;;2.01;89.88;99305.64;1733100;81;21118;-43
2021/04/07 00:42:59;;;;;;;0.20;0.20;;;;;;;2.02;90.04;99304.56;1732853;82;21524;-41
2021/04/07 00:45:27;;;;;;;0.23;0.23;;;;;;;2.05;90.14;99302.73;1732555;82;21130;-42
2021/04/07 00:47:55;;;;;;;0.10;0.10;;;;;;;2.09;90.18;99307.89;1747781;81;21147;-42
2021/04/07 00:50:25;;;;;;;0.10;0.10;;;;;;;2.15;90.25;99300.16;1751279;80;21541;-42
2021/04/07 00:52:53;;;;;;;0.40;0.40;;;;;;;2.18;90.50;99300.19;1749760;81;21119;-42
2021/04/07 00:55:29;;;;;;;0.10;0.10;;;;;;;2.20;90.65;99298.56;1751153;81;21561;-42
2021/04/07 00:57:57;;;;;;;0.10;0.10;;;;;;;2.22;90.79;99289.70;1720582;81;21211;-43
2021/04/07 01:00:26;;;;;;;0.30;0.20;;;;;;;2.27;90.91;99292.45;1714468;80;21166;-41
2021/04/07 01:02:56;;;;;;;0.10;0.10;;;;;;;2.32;91.04;99293.85;1724465;83;21430;-42
2021/04/07 01:05:24;;;;;;;1.10;1.02;;;;;;;2.36;91.16;99289.05;1724562;83;21175;-41
2021/04/07 01:07:57;;;;;;;1.07;0.20;;;;;;;2.42;91.26;99284.52;1724476;83;21171;-47
2021/04/07 01:10:25;;;;;;;0.53;0.40;;;;;;;2.46;91.32;99281.60;1724411;82;21174;-41
2021/04/07 01:12:54;;;;;;;1.30;1.02;;;;;;;2.51;91.41;99286.23;1718662;83;21139;-42
2021/04/07 01:15:21;;;;;;;0.15;0.15;;;;;;;2.56;91.58;99283.05;1735766;82;21513;-41
2021/04/07 01:17:49;;;;;;;1.75;0.50;;;;;;;2.61;91.75;99274.20;1762549;80;21117;-41
2021/04/07 01:20:19;;;;;;;0.20;0.20;;;;;;;2.68;91.94;99271.30;1786910;80;21151;-41
2021/04/07 01:22:50;;;;;;;0.10;0.10;;;;;;;2.74;92.08;99267.56;1786529;80;21146;-41
2021/04/07 01:25:17;;;;;;;0.20;0.20;;;;;;;2.81;92.22;99262.77;1785954;80;21114;-41
2021/04/07 01:27:45;;;;;;;1.10;0.65;;;;;;;2.88;92.42;99254.47;1786134;80;21909;-42
2021/04/07 01:30:15;;;;;;;1.22;0.55;;;;;;;2.97;92.54;99254.28;1786196;78;21082;-42
2021/04/07 01:32:42;;;;;;;0.33;0.33;;;;;;;3.04;92.69;99248.64;1785910;80;22445;-42
2021/04/07 01:35:12;;;;;;;0.10;0.10;;;;;;;3.13;93.08;99257.34;1786130;80;21189;-44
2021/04/07 01:37:39;;;;;;;0.53;0.53;;;;;;;3.22;93.40;99248.23;1786257;80;21597;-41
2021/04/07 01:40:10;;;;;;;0.13;0.13;;;;;;;3.32;93.65;99244.25;1786136;78;21110;-43
2021/04/07 01:42:47;;;;;;;0.10;0.10;;;;;;;3.47;93.98;99234.06;1847371;76;22700;-41
2021/04/07 01:45:14;;;;;;;0.45;0.40;;;;;;;3.50;94.21;99230.83;1785553;79;21383;-41
2021/04/07 01:47:43;;;;;;;1.75;0.72;;;;;;;3.57;94.64;99229.26;1785836;80;21173;-42
2021/04/07 01:50:11;;;;;;;0.55;0.40;;;;;;;3.61;94.75;99224.93;1785740;80;21130;-41
2021/04/07 01:52:39;;;;;;;0.30;0.30;;;;;;;3.65;94.87;99220.64;1785463;78;21126;-41
2021/04/07 01:55:07;;;;;;;0.65;0.65;;;;;;;3.69;94.98;99220.39;1755015;80;21157;-42
2021/04/07 01:57:36;;;;;;;1.10;0.65;;;;;;;3.72;95.12;99215.81;1785739;80;21118;-42
2021/04/07 02:00:12;;;;;;;0.53;0.53;;;;;;;3.75;95.39;99215.27;1785706;78;21151;-41
2021/04/07 02:02:41;;;;;;;0.85;0.40;;;;;;;3.78;95.53;99202.58;1755230;80;21145;-41
2021/04/07 02:05:10;;;;;;;1.45;0.70;;;;;;;3.81;95.93;99210.17;1754602;80;21112;-41
2021/04/07 02:07:38;;;;;;;0.35;0.35;;;;;;;3.84;96.05;99207.48;1749114;81;21197;-41
2021/04/07 02:10:07;;;;;;;0.28;0.23;;;;;;;3.87;96.03;99206.94;1777638;80;21145;-42
2021/04/07 02:12:34;;;;;;;0.35;0.35;;;;;;;3.88;96.08;99206.69;1785730;80;21173;-41
2021/04/07 02:15:14;;;;;;;0.17;0.17;;;;;;;3.91;96.12;99213.97;1785956;78;21114;-42
2021/04/07 02:17:41;;;;;;;1.55;0.30;;;;;;;3.91;96.20;99209.40;1786201;80;21133;-41
2021/04/07 02:20:10;;;;;;;0.08;0.08;;;;;;;3.92;96.35;99200.20;1786158;80;21110;-42
2021/04/07 02:22:37;;;;;;;0.10;0.10;;;;;;;3.93;96.51;99200.49;1785846;78;21132;-41
2021/04/07 02:25:07;;;;;;;0.80;0.57;;;;;;;3.94;96.52;99202.11;1786075;78;21121;-41
2021/04/07 02:27:35;;;;;;;4.33;1.20;;;;;;;3.94;96.68;99198.59;1777965;80;21563;-42
2021/04/07 02:30:06;;;;;;;0.10;0.10;;;;;;;3.95;96.82;99192.09;1777264;80;22132;-42
2021/04/07 02:32:33;;;;;;;0.08;0.08;;;;;;;3.94;96.96;99191.30;1784921;80;21129;-42
2021/04/07 02:35:01;;;;;;;0.10;0.10;;;;;;;3.95;97.01;99185.34;1755105;80;21169;-41
2021/04/07 02:37:29;;;;;;;0.20;0.20;;;;;;;3.95;96.98;99181.28;1785792;80;21164;-43
2021/04/07 02:39:58;;;;;;;1.37;1.10;;;;;;;3.95;97.00;99181.28;1783492;78;21153;-43
2021/04/07 02:42:26;;;;;;;0.82;0.57;;;;;;;3.95;97.02;99175.88;1789359;80;21129;-42
2021/04/07 02:44:55;;;;;;;1.45;1.35;;;;;;;3.96;97.07;99182.93;1791439;78;21110;-41
2021/04/07 02:47:22;;;;;;;2.17;0.60;;;;;;;3.97;97.09;99173.73;1791603;80;21101;-41
2021/04/07 02:49:50;;;;;;;0.03;0.03;;;;;;;3.98;97.01;99173.47;1791611;80;21449;-42
2021/04/07 02:52:18;;;;;;;0.88;0.88;;;;;;;4.00;96.97;99162.37;1791455;79;21568;-41
2021/04/07 02:54:45;;;;;;;0.00;0.00;;;;;;;4.01;96.92;99155.91;1754152;80;21122;-43
2021/04/07 02:57:15;;;;;;;2.45;0.30;;;;;;;4.02;96.93;99151.56;1791101;80;21079;-42
2021/04/07 02:59:43;;;;;;;0.17;0.17;;;;;;;4.02;96.86;99150.77;1761930;80;21101;-42
2021/04/07 03:02:10;;;;;;;0.40;0.40;;;;;;;4.01;96.76;99147.80;1790937;80;21122;-42
2021/04/07 03:04:38;;;;;;;0.13;0.13;;;;;;;3.99;96.71;99148.60;1791204;80;21180;-42
2021/04/07 03:07:07;;;;;;;0.17;0.17;;;;;;;3.97;96.74;99148.05;1762061;80;21153;-41
2021/04/07 03:09:34;;;;;;;0.15;0.15;;;;;;;3.97;96.75;99144.00;1790849;78;21106;-42
2021/04/07 03:12:02;;;;;;;0.00;0.00;;;;;;;3.97;96.72;99135.89;1782278;79;21535;-43
2021/04/07 03:14:30;;;;;;;0.45;0.45;;;;;;;3.97;96.71;99135.89;1759750;80;21134;-42
2021/04/07 03:17:01;;;;;;;0.10;0.10;;;;;;;3.97;96.72;99139.40;1773768;80;21138;-42
2021/04/07 03:19:30;;;;;;;0.80;0.80;;;;;;;3.99;96.75;99140.49;1790929;78;21121;-42
2021/04/07 03:21:57;;;;;;;0.40;0.40;;;;;;;4.00;96.75;99146.96;1790858;80;21168;-42
2021/04/07 03:24:25;;;;;;;0.25;0.25;;;;;;;4.01;96.78;99147.80;1790925;78;21108;-42
2021/04/07 03:26:52;;;;;;;0.23;0.23;;;;;;;4.03;96.78;99151.02;1790953;78;21122;-43
2021/04/07 03:29:21;;;;;;;0.45;0.15;;;;;;;4.04;96.81;99154.81;1790748;78;21158;-42
2021/04/07 03:31:48;;;;;;;0.30;0.30;;;;;;;4.07;96.85;99153.47;1790944;80;21141;-42
2021/04/07 03:34:16;;;;;;;0.33;0.33;;;;;;;4.08;96.85;99153.77;1790482;78;21106;-43
2021/04/07 03:36:43;;;;;;;0.20;0.20;;;;;;;4.10;96.86;99162.39;1791028;80;21952;-42
2021/04/07 03:39:10;;;;;;;0.10;0.10;;;;;;;4.12;96.80;99168.34;1790906;78;21180;-42
2021/04/07 03:41:39;;;;;;;1.00;0.35;;;;;;;4.14;96.74;99169.44;1790607;80;21235;-43
2021/04/07 03:44:06;;;;;;;0.30;0.30;;;;;;;4.14;96.75;99164.84;1787939;79;21111;-42
2021/04/07 03:46:34;;;;;;;0.75;0.75;;;;;;;4.16;96.73;99164.03;1788014;79;21151;-43
2021/04/07 03:49:01;;;;;;;0.37;0.37;;;;;;;4.20;96.68;99167.00;1787896;79;21104;-42
2021/04/07 03:51:29;;;;;;;0.20;0.20;;;;;;;4.21;96.67;99169.45;1780717;79;21148;-43
2021/04/07 03:53:56;;;;;;;0.20;0.20;;;;;;;4.22;96.64;99165.65;1772042;79;21140;-43
2021/04/07 03:56:23;;;;;;;0.10;0.10;;;;;;;4.25;96.63;99161.08;1786033;78;21094;-41
2021/04/07 03:58:51;;;;;;;0.35;0.35;;;;;;;4.28;96.61;99157.02;1791225;78;21513;-42
2021/04/07 04:01:18;;;;;;;0.50;0.50;;;;;;;4.31;96.59;99160.53;1790519;79;21140;-42
2021/04/07 04:03:45;;;;;;;0.35;0.25;;;;;;;4.35;96.51;99158.89;1791196;78;21165;-42
2021/04/07 04:06:12;;;;;;;0.00;0.00;;;;;;;4.39;96.45;99159.19;1791066;80;21109;-42
2021/04/07 04:08:40;;;;;;;0.30;0.30;;;;;;;4.43;96.34;99160.28;1780394;80;21894;-42
2021/04/07 04:11:08;;;;;;;0.10;0.10;;;;;;;4.47;96.25;99156.73;1772058;80;21136;-42
2021/04/07 04:13:37;;;;;;;0.25;0.25;;;;;;;4.51;96.18;99157.83;1772309;80;21121;-42
2021/04/07 04:16:05;;;;;;;0.50;0.50;;;;;;;4.56;96.07;99150.25;1790907;80;21596;-41
2021/04/07 04:18:32;;;;;;;0.23;0.23;;;;;;;4.61;95.95;99146.73;1791488;80;21201;-41
2021/04/07 04:21:02;;;;;;;0.10;0.10;;;;;;;4.63;95.79;99153.50;1790845;80;21110;-43
2021/04/07 04:23:30;;;;;;;0.42;0.42;;;;;;;4.65;95.63;99145.93;1791570;80;21114;-42
2021/04/07 04:26:00;;;;;;;0.17;0.17;;;;;;;4.67;95.49;99149.17;1790953;80;21560;-43
2021/04/07 04:28:28;;;;;;;1.27;0.20;;;;;;;4.70;95.37;99150.53;1791128;78;21145;-42
2021/04/07 04:30:55;;;;;;;3.30;0.65;;;;;;;4.71;95.18;99156.20;1791035;80;21149;-42
2021/04/07 04:33:23;;;;;;;0.10;0.10;;;;;;;4.74;95.11;99151.59;1791121;78;21456;-43
2021/04/07 04:35:50;;;;;;;0.65;0.40;;;;;;;4.77;95.01;99148.88;1791196;80;21145;-43
2021/04/07 04:38:19;;;;;;;0.50;0.50;;;;;;;4.79;94.94;99154.28;1759824;80;21548;-41
2021/04/07 04:40:46;;;;;;;0.20;0.20;;;;;;;4.82;94.79;99152.41;1759906;81;21129;-42
2021/04/07 04:43:14;;;;;;;0.20;0.20;;;;;;;4.88;94.62;99147.79;1727810;82;21539;-42
2021/04/07 04:45:43;;;;;;;1.65;0.75;;;;;;;4.91;94.45;99153.45;1735776;82;21105;-43
2021/04/07 04:48:10;;;;;;;2.08;1.40;;;;;;;4.95;94.29;99161.86;1736040;82;21579;-43
2021/04/07 04:50:38;;;;;;;0.03;0.03;;;;;;;4.99;94.11;99165.62;1736000;82;21615;-42
2021/04/07 04:53:07;;;;;;;0.47;0.30;;;;;;;5.01;93.94;99168.87;1735687;82;21088;-43
2021/04/07 04:55:35;;;;;;;0.55;0.55;;;;;;;5.03;93.77;99164.00;1736027;81;21110;-42
2021/04/07 04:58:02;;;;;;;0.30;0.30;;;;;;;5.05;93.62;99172.66;1736099;82;21573;-42
2021/04/07 05:00:32;;;;;;;0.10;0.10;;;;;;;5.09;93.39;99175.06;1730889;82;21152;-43
2021/04/07 05:03:00;;;;;;;0.65;0.65;;;;;;;5.13;93.21;99165.88;1733331;82;21569;-42
2021/04/07 05:05:28;;;;;;;0.10;0.10;;;;;;;5.17;93.09;99156.92;1727697;81;21185;-41
2021/04/07 05:07:56;;;;;;;2.55;0.23;;;;;;;5.21;92.89;99160.43;1736162;82;20995;-42
2021/04/07 05:10:24;;;;;;;1.15;0.37;;;;;;;5.27;92.74;99156.64;1736035;82;21126;-42
2021/04/07 05:12:52;;;;;;;0.23;0.23;;;;;;;5.32;92.61;99162.03;1735986;82;21580;-42
2021/04/07 05:15:19;;;;;;;0.40;0.40;;;;;;;5.37;92.40;99155.25;1716748;81;21159;-42
2021/04/07 05:17:48;;;;;;;0.57;0.57;;;;;;;5.43;92.17;99162.25;1735693;82;21176;-41
2021/04/07 05:20:16;;;;;;;0.37;0.37;;;;;;;5.48;91.95;99157.36;1734363;82;21146;-41
2021/04/07 05:22:43;;;;;;;0.53;0.53;;;;;;;5.54;91.63;99161.14;1735859;82;21146;-41
2021/04/07 05:25:12;;;;;;;0.10;0.10;;;;;;;5.61;91.44;99160.81;1732820;81;21651;-41
2021/04/07 05:27:40;;;;;;;2.98;0.60;;;;;;;5.67;91.25;99152.94;1735800;82;21131;-42
2021/04/07 05:30:08;;;;;;;0.28;0.28;;;;;;;5.75;91.00;99161.03;1736009;82;21169;-42
2021/04/07 05:32:36;;;;;;;0.00;0.00;;;;;;;5.81;90.67;99159.91;1735865;82;21153;-42
2021/04/07 05:35:04;;;;;;;0.65;0.42;;;;;;;5.88;90.61;99164.47;1735725;81;21128;-42
2021/04/07 05:37:31;;;;;;;0.13;0.13;;;;;;;5.95;90.23;99168.27;1734625;82;21131;-42
2021/04/07 05:39:59;;;;;;;0.00;0.00;;;;;;;6.04;89.92;99162.53;1735890;82;21152;-42
2021/04/07 05:42:27;;;;;;;0.40;0.40;;;;;;;6.11;89.62;99169.81;1734577;82;21135;-41
2021/04/07 05:44:54;;;;;;;1.10;1.10;;;;;;;6.19;89.44;99166.50;1732217;82;21206;-42
2021/04/07 05:47:21;;;;;;;0.08;0.08;;;;;;;6.28;89.06;99176.22;1731986;82;21122;-42
2021/04/07 05:49:50;;;;;;;0.47;0.47;;;;;;;6.32;88.65;99173.73;1732184;81;21740;-42
2021/04/07 05:52:17;;;;;;;2.00;0.42;;;;;;;6.39;88.27;99182.38;1731657;82;20991;-41
2021/04/07 05:54:44;;;;;;;0.53;0.20;;;;;;;6.44;87.93;99187.20;1731231;81;21142;-42
2021/04/07 05:57:12;;;;;;;0.33;0.33;;;;;;;6.51;87.23;99192.33;1735727;81;21174;-41
2021/04/07 05:59:39;;;;;;;0.20;0.20;;;;;;;6.56;86.74;99192.84;1722069;83;21231;-42
2021/04/07 06:02:07;;;;;;;0.03;0.03;;;;;;;6.59;86.30;99186.83;1721081;83;21217;-41
2021/04/07 06:04:34;;;;;;;0.62;0.55;;;;;;;6.64;85.90;99193.58;1720941;83;21111;-42
2021/04/07 06:07:03;;;;;;;0.47;0.40;;;;;;;6.69;85.56;99198.96;1723589;83;21145;-42
2021/04/07 06:09:31;;;;;;;0.53;0.25;;;;;;;6.73;85.16;99195.14;1691519;83;21153;-42
2021/04/07 06:11:59;;;;;;;0.60;0.60;;;;;;;6.75;84.82;99192.41;1726068;81;21529;-41
2021/04/07 06:14:26;;;;;;;0.85;0.42;;;;;;;6.76;84.51;99193.22;1751778;80;21146;-42
2021/04/07 06:16:54;;;;;;;4.12;1.62;;;;;;;6.78;84.32;99185.59;1726581;82;21174;-42
2021/04/07 06:19:22;;;;;;;2.22;1.12;;;;;;;6.84;84.21;99185.25;1743018;81;21495;-44
2021/04/07 06:21:49;;;;;;;0.30;0.30;;;;;;;6.95;83.94;99182.44;1741536;81;21433;-42
2021/04/07 06:24:17;;;;;;;0.10;0.10;;;;;;;7.00;83.46;99180.50;1737506;81;21428;-43
2021/04/07 06:26:44;;;;;;;0.10;0.10;;;;;;;7.07;83.30;99175.55;1712295;81;21129;-43
2021/04/07 06:29:11;;;;;;;2.45;1.80;;;;;;;7.20;83.22;99167.25;1743742;81;21114;-42
2021/04/07 06:31:40;;;;;;;1.75;1.32;;;;;;;7.32;82.52;99162.23;1742208;81;21153;-42
2021/04/07 06:34:07;;;;;;;0.10;0.10;;;;;;;7.45;81.95;99163.99;1740289;81;21145;-43
2021/04/07 06:36:35;;;;;;;0.33;0.33;;;;;;;7.54;81.41;99164.95;1712933;81;21536;-42
2021/04/07 06:39:03;;;;;;;0.20;0.20;;;;;;;7.62;81.17;99159.44;1739153;81;21374;-42
2021/04/07 06:41:31;;;;;;;0.37;0.25;;;;;;;7.73;80.75;99163.08;1743448;81;21142;-43
2021/04/07 06:43:59;;;;;;;0.30;0.30;;;;;;;7.86;80.14;99159.38;1751173;80;21146;-42
2021/04/07 06:46:27;;;;;;;0.82;0.82;;;;;;;7.91;79.45;99152.51;1724849;81;21164;-43
2021/04/07 06:48:54;;;;;;;0.15;0.15;;;;;;;7.91;78.90;99151.98;1693674;81;21425;-42
2021/04/07 06:51:22;;;;;;;1.20;0.70;;;;;;;7.97;78.66;99149.44;1720207;83;21565;-42
2021/04/07 06:53:50;;;;;;;0.10;0.10;;;;;;;8.06;78.77;99138.72;1734513;81;21153;-42
2021/04/07 06:56:18;;;;;;;0.00;0.00;;;;;;;8.25;78.58;99137.88;1738433;81;21644;-43
2021/04/07 06:58:47;;;;;;;2.17;0.95;;;;;;;8.45;77.92;99134.86;1738571;82;21145;-42
2021/04/07 07:01:14;;;;;;;0.08;0.08;;;;;;;8.58;77.15;99136.84;1738380;82;21126;-42
2021/04/07 07:03:43;;;;;;;0.35;0.30;;;;;;;8.69;76.25;99140.19;1726093;82;21123;-43
2021/04/07 07:06:11;;;;;;;1.27;0.53;;;;;;;8.73;75.89;99138.48;1738958;82;21638;-43
2021/04/07 07:08:42;;;;;;;0.35;0.35;;;;;;;8.79;75.39;99146.01;1714506;82;21156;-43
2021/04/07 07:11:12;;;;;;;0.10;0.10;;;;;;;8.86;75.58;99134.73;1743156;82;21164;-43
2021/04/07 07:13:42;;;;;;;;;;;;;;;8.98;75.16;99137.22;1737969;81;21148;-43
2021/04/07 07:16:11;;;;;;;0.15;0.15;;;;;;;9.14;74.49;99139.66;1735578;82;20267;-41
2021/04/07 07:18:44;;;;;;;0.10;0.10;;;;;;;9.34;73.93;99139.25;1724677;83;21133;-44
2021/04/07 07:21:15;;;;;;;0.00;0.00;;;;;;;9.56;73.19;99136.38;1735477;82;21158;-43
2021/04/07 07:23:47;;;;;;;0.15;0.15;;;;;;;9.76;72.58;99129.11;1747691;82;21195;-43
2021/04/07 07:26:16;;;;;;;0.68;0.47;;;;;;;9.90;71.90;99127.17;1747671;82;21157;-43
2021/04/07 07:28:55;;;;;;;0.28;0.28;;;;;;;10.02;71.23;99136.19;1738557;81;21125;-42
2021/04/07 07:31:29;;;;;;;0.57;0.57;;;;;;;10.06;70.60;99137.73;1729421;81;21557;-42
2021/04/07 07:33:59;;;;;;;0.75;0.55;;;;;;;10.10;70.18;99142.84;1726909;81;21133;-42
2021/04/07 07:36:27;;;;;;;0.10;0.10;;;;;;;10.11;69.82;99143.08;1708000;82;21133;-42
2021/04/07 07:38:56;;;;;;;0.13;0.13;;;;;;;10.10;69.55;99149.66;1735316;81;20979;-42
2021/04/07 07:41:30;;;;;;;0.98;0.98;;;;;;;9.98;69.13;99152.92;1755889;81;21123;-43
2021/04/07 07:44:00;;;;;;;0.70;0.40;;;;;;;9.88;69.34;99148.48;1735900;81;21135;-42
2021/04/07 07:46:28;;;;;;;0.62;0.20;;;;;;;9.82;69.28;99151.09;1750028;81;21145;-42
2021/04/07 07:48:56;;;;;;;0.15;0.15;;;;;;;9.68;69.21;99153.83;1749670;80;21656;-42
2021/04/07 07:51:25;;;;;;;0.20;0.20;;;;;;;9.56;69.65;99154.09;1731435;81;21663;-43
2021/04/07 07:53:54;;;;;;;0.20;0.20;;;;;;;9.44;70.04;99159.48;1729035;82;21197;-42
2021/04/07 07:56:25;;;;;;;0.40;0.40;;;;;;;9.30;70.37;99149.16;1725721;82;21115;-42
2021/04/07 07:58:52;;;;;;;0.42;0.42;;;;;;;9.16;70.83;99153.80;1707282;83;21640;-41
2021/04/07 08:01:21;;;;;;;0.42;0.20;;;;;;;8.98;71.45;99152.20;1715284;82;21158;-43
2021/04/07 08:03:49;;;;;;;0.20;0.05;;;;;;;8.85;71.92;99152.97;1732122;81;21203;-44
2021/04/07 08:06:16;;;;;;;0.33;0.33;;;;;;;8.78;72.46;99149.85;1712482;82;21508;-42
2021/04/07 08:08:45;;;;;;;0.40;0.30;;;;;;;8.71;73.03;99147.51;1729000;82;21492;-42
2021/04/07 08:11:13;;;;;;;0.30;0.30;;;;;;;8.63;73.45;99146.00;1742577;82;21168;-43
2021/04/07 08:13:46;;;;;;;1.02;0.75;;;;;;;8.59;73.96;99141.16;1732284;81;21208;-42
2021/04/07 08:16:16;;;;;;;1.17;0.20;;;;;;;8.61;74.19;99146.33;1742282;82;21595;-43
2021/04/07 08:18:46;;;;;;;0.23;0.23;;;;;;;8.57;74.37;99144.73;1742119;82;21441;-43
2021/04/07 08:21:20;;;;;;;0.20;0.20;;;;;;;8.60;74.60;99142.80;1734571;82;21509;-42
2021/04/07 08:23:58;;;;;;;0.10;0.10;;;;;;;8.65;74.62;99138.35;1697579;82;21955;-44
2021/04/07 08:26:37;;;;;;;0.47;0.37;;;;;;;8.73;74.76;99134.94;1878925;76;20902;-40
2021/04/07 08:29:05;;;;;;;0.72;0.72;;;;;;;8.73;74.70;99145.30;1804168;78;21090;-41
2021/04/07 08:31:33;;;;;;;0.40;0.40;;;;;;;8.78;74.67;99149.30;1815768;78;21125;-42
2021/04/07 08:34:03;;;;;;;0.75;0.75;;;;;;;8.82;74.56;99141.31;1811310;78;21597;-41
2021/04/07 08:36:31;;;;;;;0.62;0.50;;;;;;;8.80;74.45;99147.61;1788477;78;21446;-42
2021/04/07 08:39:05;;;;;;;1.55;1.42;;;;;;;8.74;74.41;99145.54;1812699;78;21126;-41
2021/04/07 08:41:33;;;;;;;0.40;0.40;;;;;;;8.68;74.39;99137.75;1793310;78;21152;-42
2021/04/07 08:44:01;;;;;;;0.17;0.17;;;;;;;8.60;74.55;99135.98;1786484;78;21138;-41
2021/04/07 08:46:51;;;;;;;0.10;0.10;;;;;;;8.60;74.63;99134.63;1754130;80;21149;-41
2021/04/07 08:49:41;;;;;;;0.00;0.00;;;;;;;8.59;74.59;99139.80;1713785;81;21130;-41
2021/04/07 08:52:16;;;;;;;0.65;0.65;;;;;;;8.53;74.79;99143.73;1696348;83;21525;-41
2021/04/07 08:54:53;;;;;;;0.78;0.70;;;;;;;8.42;75.09;99136.82;1730937;81;21429;-41
2021/04/07 08:57:32;;;;;;;1.70;1.02;;;;;;;8.34;75.54;99136.11;1732395;81;21122;-41
2021/04/07 09:00:03;;;;;;;1.30;1.20;;;;;;;8.29;76.00;99132.11;1732974;81;21190;-42
2021/04/07 09:02:31;;;;;;;0.30;0.30;;;;;;;8.25;76.35;99135.96;1758289;80;21095;-42
2021/04/07 09:05:07;;;;;;;0.20;0.20;;;;;;;8.24;76.65;99130.83;1755679;80;21134;-42
2021/04/07 09:07:43;;;;;;;0.20;0.20;;;;;;;8.23;76.74;99133.28;1725138;81;21222;-42
2021/04/07 09:10:16;;;;;;;0.47;0.47;;;;;;;8.23;76.79;99128.64;1736952;80;21212;-41
2021/04/07 09:12:47;;;;;;;0.72;0.50;;;;;;;8.20;77.07;99125.16;1731121;81;21160;-41
2021/04/07 09:15:18;;;;;;;1.87;1.02;;;;;;;8.14;77.36;99123.08;1761857;80;21127;-41
2021/04/07 09:17:57;;;;;;;3.45;1.60;;;;;;;8.08;77.62;99117.44;1755093;81;21154;-41
2021/04/07 09:20:42;;;;;;;0.90;0.65;;;;;;;8.06;77.82;99112.87;1761912;79;21462;-42
2021/04/07 09:23:25;;;;;;;0.20;0.20;;;;;;;8.08;77.97;99111.20;1736856;81;21118;-42
2021/04/07 09:25:59;;;;;;;0.68;0.42;;;;;;;8.08;78.07;99116.08;1730609;81;21138;-42
2021/04/07 09:28:35;;;;;;;0.60;0.17;;;;;;;8.11;78.29;99103.80;1699594;82;21135;-41
2021/04/07 09:31:08;;;;;;;1.12;0.50;;;;;;;8.14;78.35;99101.30;1724503;82;21118;-41
2021/04/07 09:33:37;;;;;;;0.10;0.10;;;;;;;8.15;78.39;99100.75;1705429;83;22392;-41
2021/04/07 09:36:05;;;;;;;0.88;0.68;;;;;;;8.12;78.63;99092.63;1755058;81;21153;-43
2021/04/07 09:38:37;;;;;;;1.57;1.40;;;;;;;8.13;78.98;99094.23;1754293;81;22068;-43
2021/04/07 09:41:09;;;;;;;0.62;0.62;;;;;;;8.18;79.17;99091.98;1726510;81;21683;-44
2021/04/07 09:43:37;;;;;;;1.20;0.90;;;;;;;8.19;79.21;99095.78;1729582;81;21189;-42
2021/04/07 09:46:06;;;;;;;2.08;1.57;;;;;;;8.21;79.36;99101.47;1724742;81;21560;-40
2021/04/07 09:48:48;;;;;;;0.20;0.20;;;;;;;8.23;79.42;99106.06;1721386;81;21221;-41
2021/04/07 09:51:37;;;;;;;0.30;0.30;;;;;;;8.27;79.55;99096.22;1752213;81;21958;-40
2021/04/07 09:54:25;;;;;;;0.50;0.50;;;;;;;8.33;79.57;99099.09;1732693;81;21502;-42
2021/04/07 09:57:08;;;;;;;4.10;1.50;;;;;;;8.30;79.67;99094.25;1728621;81;21142;-43
2021/04/07 09:59:47;;;;;;;1.37;1.15;;;;;;;8.30;79.77;99098.34;1728384;81;21139;-41
2021/04/07 10:02:26;;;;;;;0.53;0.50;;;;;;;8.33;79.94;99097.73;1725745;83;21557;-41
2021/04/07 10:04:55;;;;;;;0.98;0.65;;;;;;;8.30;79.87;99093.70;1703052;83;21272;-41
2021/04/07 10:07:26;;;;;;;0.40;0.40;;;;;;;8.28;80.00;99099.18;1727931;81;21941;-42
2021/04/07 10:10:00;;;;;;;1.25;0.98;;;;;;;8.29;79.90;99103.53;1694176;83;21131;-42
2021/04/07 10:12:29;;;;;;;0.70;0.70;;;;;;;8.22;79.83;99103.10;1727940;82;21161;-42
2021/04/07 10:14:58;;;;;;;0.78;0.78;;;;;;;8.16;79.91;99101.83;1721348;82;21161;-42
2021/04/07 10:17:29;;;;;;;1.00;0.55;;;;;;;8.15;80.05;99105.63;1707235;82;21062;-41
2021/04/07 10:19:58;;;;;;;0.78;0.78;;;;;;;8.10;80.10;99110.35;1723297;81;21410;-43
2021/04/07 10:22:29;;;;;;;1.85;1.52;;;;;;;8.12;80.20;99115.75;1700613;82;21098;-43
2021/04/07 10:27:40;;;;;;;0.68;0.68;;;;;;;8.05;79.78;99121.31;1749488;80;21695;-43
2021/04/07 10:30:11;;;;;;;0.30;0.30;;;;;;;7.92;79.71;99125.03;1764606;80;21119;-42
2021/04/07 10:32:41;;;;;;;0.47;0.47;;;;;;;7.77;79.68;99131.25;1782466;80;21122;-42
2021/04/07 10:35:10;;;;;;;2.92;0.72;;;;;;;7.53;79.85;99134.80;1741675;81;21228;-42
2021/04/07 10:37:37;;;;;;;0.20;0.20;;;;;;;7.29;80.11;99135.64;1717423;81;21139;-42
2021/04/07 10:40:13;;;;;;;0.55;0.55;;;;;;;7.03;80.40;99141.89;1750808;80;21245;-43
2021/04/07 10:42:42;;;;;;;1.40;1.30;;;;;;;6.77;81.10;99149.47;1773498;80;21119;-43
2021/04/07 10:45:12;;;;;;;1.98;1.55;;;;;;;6.59;81.79;99150.99;1775706;80;21167;-42
2021/04/07 10:47:40;;;;;;;0.90;0.80;;;;;;;6.41;82.27;99155.22;1767851;80;21529;-43
2021/04/07 10:50:09;;;;;;;0.47;0.47;;;;;;;6.29;82.75;99168.33;1762622;80;21091;-42
2021/04/07 10:52:41;;;;;;;0.00;0.00;;;;;;;6.15;83.01;99157.84;1761855;80;21152;-42
2021/04/07 10:55:24;;;;;;;1.15;1.00;;;;;;;6.04;83.34;99166.60;1774078;80;21169;-43
2021/04/07 10:57:53;;;;;;;0.82;0.82;;;;;;;5.95;83.52;99169.08;1724865;83;21158;-43
2021/04/07 11:00:36;;;;;;;0.20;0.20;;;;;;;5.91;83.93;99163.94;1729607;81;21001;-42
2021/04/07 11:03:06;;;;;;;1.40;1.32;;;;;;;5.90;83.98;99162.85;1743605;81;21150;-42
2021/04/07 11:05:44;;;;;;;0.10;0.10;;;;;;;5.85;84.24;99162.33;1735258;81;21682;-43
2021/04/07 11:08:14;;;;;;;0.42;0.42;;;;;;;5.83;84.50;99171.28;1713203;81;21664;-42
2021/04/07 11:10:47;;;;;;;0.75;0.28;;;;;;;5.84;84.72;99164.79;1763496;81;21144;-43
2021/04/07 11:13:17;;;;;;;0.60;0.60;;;;;;;5.88;84.84;99162.31;1758745;81;21102;-43
2021/04/07 11:15:46;;;;;;;0.68;0.68;;;;;;;5.88;84.85;99165.03;1733703;81;21588;-43
2021/04/07 11:18:15;;;;;;;0.13;0.10;;;;;;;5.84;84.74;99159.36;1727185;81;21132;-44
2021/04/07 11:20:45;;;;;;;0.50;0.50;;;;;;;5.77;84.75;99161.02;1734945;80;21476;-42
2021/04/07 11:23:14;;;;;;;0.10;0.10;;;;;;;5.71;84.84;99168.09;1752496;80;21129;-42
2021/04/07 11:25:44;;;;;;;0.20;0.20;;;;;;;5.63;84.88;99164.06;1753473;81;21153;-42
2021/04/07 11:28:17;;;;;;;0.30;0.30;;;;;;;5.53;85.21;99164.91;1734201;81;21186;-44
2021/04/07 11:30:56;;;;;;;0.15;0.15;;;;;;;5.43;85.53;99160.89;1733344;81;21141;-41
2021/04/07 11:33:15;;;;;;;0.15;0.15;;;;;;;5.38;85.77;99159.56;1735562;81;21145;-42
2021/04/07 11:35:53;;;;;;;1.52;1.20;;;;;;;5.31;86.00;99159.84;1731973;81;21117;-41
2021/04/07 11:38:17;;;;;;;0.17;0.17;;;;;;;5.28;86.31;99154.19;1759495;81;21145;-43
2021/04/07 11:43:34;;;;;;;0.20;0.20;;;;;;;5.15;86.59;99145.55;1755200;81;21110;-44
2021/04/07 11:45:56;;;;;;;0.42;0.42;;;;;;;5.11;86.66;99152.59;1722098;81;21141;-42
2021/04/07 11:48:26;;;;;;;0.15;0.15;;;;;;;5.05;86.87;99155.06;1734198;81;21137;-42
2021/04/07 11:50:54;;;;;;;0.20;0.20;;;;;;;5.02;86.97;99158.33;1738484;81;21102;-43
2021/04/07 11:53:21;;;;;;;0.50;0.50;;;;;;;5.00;87.17;99147.50;1762686;81;21126;-42
2021/04/07 11:55:50;;;;;;;0.10;0.10;;;;;;;4.99;87.27;99139.90;1765565;80;21134;-44
2021/04/07 11:58:18;;;;;;;0.10;0.10;;;;;;;5.00;87.47;99144.25;1718437;81;21194;-44